sensor_id;sensor_type;location;lat;lon;timestamp;pressure;altitude;pressure_sealevel;temperature;humidity
11523;BME280;40093;43.224;27.910;2022-11-12T00:01:39;101825.88;;;11.73;100.00
11523;BME280;40093;43.224;27.910;2022-11-12T00:04:07;101835.38;;;11.75;100.00
11523;BME280;40093;43.224;27.910;2022-11-12T00:06:34;101819.66;;;11.76;100.00
11523;BME280;40093;43.224;27.910;2022-11-12T00:09:01;101825.38;;;11.83;100.00
11523;BME280;40093;43.224;27.910;2022-11-12T00:11:28;101831.56;;;11.80;100.00
11523;BME280;40093;43.224;27.910;2022-11-12T00:13:55;101818.81;;;11.75;100.00
11523;BME280;40093;43.224;27.910;2022-11-12T00:16:21;101831.56;;;11.80;100.00
11523;BME280;40093;43.224;27.910;2022-11-12T00:18:48;101828.56;;;11.85;100.00
11523;BME280;40093;43.224;27.910;2022-11-12T00:21:16;101812.63;;;11.78;100.00
11523;BME280;40093;43.224;27.910;2022-11-12T00:23:43;101816.16;;;11.79;100.00
11523;BME280;40093;43.224;27.910;2022-11-12T00:26:10;101825.00;;;11.84;100.00
11523;BME280;40093;43.224;27.910;2022-11-12T00:28:37;101815.72;;;11.77;100.00
11523;BME280;40093;43.224;27.910;2022-11-12T00:31:09;101803.00;;;11.72;100.00
11523;BME280;40093;43.224;27.910;2022-11-12T00:33:39;101825.16;;;11.76;100.00
11523;BME280;40093;43.224;27.910;2022-11-12T00:36:07;101816.97;;;11.79;100.00
11523;BME280;40093;43.224;27.910;2022-11-12T00:38:36;101819.66;;;11.76;100.00
11523;BME280;40093;43.224;27.910;2022-11-12T00:41:03;101811.72;;;11.74;100.00
11523;BME280;40093;43.224;27.910;2022-11-12T00:43:30;101806.09;;;11.71;100.00
11523;BME280;40093;43.224;27.910;2022-11-12T00:45:57;101812.41;;;11.71;100.00
11523;BME280;40093;43.224;27.910;2022-11-12T00:48:24;101813.56;;;11.70;100.00
11523;BME280;40093;43.224;27.910;2022-11-12T00:50:51;101812.63;;;11.78;100.00
11523;BME280;40093;43.224;27.910;2022-11-12T00:53:24;101819.84;;;11.83;100.00
11523;BME280;40093;43.224;27.910;2022-11-12T00:55:52;101808.00;;;11.82;100.00
11523;BME280;40093;43.224;27.910;2022-11-12T00:58:19;101818.41;;;11.89;100.00
11523;BME280;40093;43.224;27.910;2022-11-12T01:00:46;101779.69;;;11.85;100.00
11523;BME280;40093;43.224;27.910;2022-11-12T01:03:12;101810.03;;;11.85;100.00
11523;BME280;40093;43.224;27.910;2022-11-12T01:05:40;101803.97;;;11.80;100.00
11523;BME280;40093;43.224;27.910;2022-11-12T01:08:07;101814.66;;;11.81;100.00
11523;BME280;40093;43.224;27.910;2022-11-12T01:10:34;101809.06;;;11.78;100.00
11523;BME280;40093;43.224;27.910;2022-11-12T01:13:02;101808.72;;;11.79;100.00
11523;BME280;40093;43.224;27.910;2022-11-12T01:15:29;101816.44;;;11.74;100.00
11523;BME280;40093;43.224;27.910;2022-11-12T01:17:56;101815.53;;;11.70;100.00
11523;BME280;40093;43.224;27.910;2022-11-12T01:20:23;101822.34;;;11.60;100.00
11523;BME280;40093;43.224;27.910;2022-11-12T01:22:50;101825.69;;;11.54;100.00
11523;BME280;40093;43.224;27.910;2022-11-12T01:25:17;101819.16;;;11.58;100.00
11523;BME280;40093;43.224;27.910;2022-11-12T01:27:45;101831.06;;;11.62;100.00
11523;BME280;40093;43.224;27.910;2022-11-12T01:30:13;101829.22;;;11.66;100.00
11523;BME280;40093;43.224;27.910;2022-11-12T01:32:40;101824.28;;;11.72;100.00
11523;BME280;40093;43.224;27.910;2022-11-12T01:35:07;101818.88;;;11.63;100.00
11523;BME280;40093;43.224;27.910;2022-11-12T01:37:34;101816.84;;;11.60;100.00
11523;BME280;40093;43.224;27.910;2022-11-12T01:40:01;101807.66;;;11.44;100.00
11523;BME280;40093;43.224;27.910;2022-11-12T01:42:29;101823.84;;;11.58;100.00
11523;BME280;40093;43.224;27.910;2022-11-12T01:44:56;101830.19;;;11.58;100.00
11523;BME280;40093;43.224;27.910;2022-11-12T01:47:26;101811.31;;;11.60;100.00
11523;BME280;40093;43.224;27.910;2022-11-12T01:49:56;101804.22;;;11.59;100.00
11523;BME280;40093;43.224;27.910;2022-11-12T01:52:28;101812.47;;;11.59;100.00
11523;BME280;40093;43.224;27.910;2022-11-12T01:55:01;101815.81;;;11.53;100.00
11523;BME280;40093;43.224;27.910;2022-11-12T01:57:31;101818.44;;;11.61;100.00
11523;BME280;40093;43.224;27.910;2022-11-12T02:00:04;101796.84;;;11.51;100.00
11523;BME280;40093;43.224;27.910;2022-11-12T02:02:34;101816.72;;;11.57;100.00
11523;BME280;40093;43.224;27.910;2022-11-12T02:05:02;101796.28;;;11.58;100.00
11523;BME280;40093;43.224;27.910;2022-11-12T02:07:30;101796.50;;;11.53;100.00
11523;BME280;40093;43.224;27.910;2022-11-12T02:09:59;101789.50;;;11.55;100.00
11523;BME280;40093;43.224;27.910;2022-11-12T02:12:27;101784.28;;;11.38;100.00
11523;BME280;40093;43.224;27.910;2022-11-12T02:15:11;101792.75;;;11.45;100.00
11523;BME280;40093;43.224;27.910;2022-11-12T02:17:39;101806.78;;;11.40;100.00
11523;BME280;40093;43.224;27.910;2022-11-12T02:20:08;101802.84;;;11.41;100.00
11523;BME280;40093;43.224;27.910;2022-11-12T02:22:37;101801.81;;;11.46;100.00
11523;BME280;40093;43.224;27.910;2022-11-12T02:25:05;101791.13;;;11.44;100.00
11523;BME280;40093;43.224;27.910;2022-11-12T02:27:32;101799.88;;;11.46;100.00
11523;BME280;40093;43.224;27.910;2022-11-12T02:29:59;101790.22;;;11.40;100.00
11523;BME280;40093;43.224;27.910;2022-11-12T02:32:26;101797.50;;;11.33;100.00
11523;BME280;40093;43.224;27.910;2022-11-12T02:34:53;101793.31;;;11.39;100.00
11523;BME280;40093;43.224;27.910;2022-11-12T02:37:20;101820.34;;;11.33;100.00
11523;BME280;40093;43.224;27.910;2022-11-12T02:39:48;101815.97;;;11.32;100.00
11523;BME280;40093;43.224;27.910;2022-11-12T02:42:15;101813.59;;;11.31;100.00
11523;BME280;40093;43.224;27.910;2022-11-12T02:44:42;101822.41;;;11.36;100.00
11523;BME280;40093;43.224;27.910;2022-11-12T02:47:09;101805.28;;;11.43;100.00
11523;BME280;40093;43.224;27.910;2022-11-12T02:49:36;101817.00;;;11.40;100.00
11523;BME280;40093;43.224;27.910;2022-11-12T02:52:03;101811.34;;;11.48;100.00
11523;BME280;40093;43.224;27.910;2022-11-12T02:54:30;101811.91;;;11.54;100.00
11523;BME280;40093;43.224;27.910;2022-11-12T02:56:58;101822.72;;;11.47;100.00
11523;BME280;40093;43.224;27.910;2022-11-12T02:59:25;101826.03;;;11.52;100.00
11523;BME280;40093;43.224;27.910;2022-11-12T03:01:52;101821.22;;;11.49;100.00
11523;BME280;40093;43.224;27.910;2022-11-12T03:04:19;101809.28;;;11.45;100.00
11523;BME280;40093;43.224;27.910;2022-11-12T03:06:46;101827.63;;;11.53;100.00
11523;BME280;40093;43.224;27.910;2022-11-12T03:09:13;101834.09;;;11.57;100.00
11523;BME280;40093;43.224;27.910;2022-11-12T03:11:39;101829.47;;;11.61;100.00
11523;BME280;40093;43.224;27.910;2022-11-12T03:14:08;101834.28;;;11.64;100.00
11523;BME280;40093;43.224;27.910;2022-11-12T03:16:35;101834.97;;;11.61;100.00
11523;BME280;40093;43.224;27.910;2022-11-12T03:19:02;101828.09;;;11.55;100.00
11523;BME280;40093;43.224;27.910;2022-11-12T03:21:29;101830.38;;;11.53;100.00
11523;BME280;40093;43.224;27.910;2022-11-12T03:23:56;101821.19;;;11.61;100.00
11523;BME280;40093;43.224;27.910;2022-11-12T03:26:22;101837.28;;;11.59;100.00
11523;BME280;40093;43.224;27.910;2022-11-12T03:28:49;101828.56;;;11.57;100.00
11523;BME280;40093;43.224;27.910;2022-11-12T03:31:18;101844.41;;;11.60;100.00
11523;BME280;40093;43.224;27.910;2022-11-12T03:33:45;101846.72;;;11.58;100.00
11523;BME280;40093;43.224;27.910;2022-11-12T03:36:12;101855.44;;;11.60;100.00
11523;BME280;40093;43.224;27.910;2022-11-12T03:38:39;101859.09;;;11.52;100.00
11523;BME280;40093;43.224;27.910;2022-11-12T03:41:06;101833.84;;;11.50;100.00
11523;BME280;40093;43.224;27.910;2022-11-12T03:43:33;101836.38;;;11.55;100.00
11523;BME280;40093;43.224;27.910;2022-11-12T03:46:00;101842.09;;;11.62;100.00
11523;BME280;40093;43.224;27.910;2022-11-12T03:48:29;101840.06;;;11.47;100.00
11523;BME280;40093;43.224;27.910;2022-11-12T03:50:57;101836.94;;;11.49;100.00
11523;BME280;40093;43.224;27.910;2022-11-12T03:53:24;101850.66;;;11.33;100.00
11523;BME280;40093;43.224;27.910;2022-11-12T03:55:51;101850.66;;;11.33;100.00
11523;BME280;40093;43.224;27.910;2022-11-12T03:58:18;101852.91;;;11.43;100.00
11523;BME280;40093;43.224;27.910;2022-11-12T04:00:45;101852.47;;;11.41;100.00
11523;BME280;40093;43.224;27.910;2022-11-12T04:03:12;101865.09;;;11.42;100.00
11523;BME280;40093;43.224;27.910;2022-11-12T04:05:41;101863.50;;;11.41;100.00
11523;BME280;40093;43.224;27.910;2022-11-12T04:08:25;101871.31;;;11.39;100.00
11523;BME280;40093;43.224;27.910;2022-11-12T04:11:05;101873.84;;;11.32;100.00
11523;BME280;40093;43.224;27.910;2022-11-12T04:13:32;101875.94;;;11.35;100.00
11523;BME280;40093;43.224;27.910;2022-11-12T04:15:59;101862.03;;;11.32;100.00
11523;BME280;40093;43.224;27.910;2022-11-12T04:18:45;101865.59;;;11.32;100.00
11523;BME280;40093;43.224;27.910;2022-11-12T04:21:47;101854.47;;;11.29;100.00
11523;BME280;40093;43.224;27.910;2022-11-12T04:24:21;101864.22;;;11.26;100.00
11523;BME280;40093;43.224;27.910;2022-11-12T04:27:08;101864.22;;;11.26;100.00
11523;BME280;40093;43.224;27.910;2022-11-12T04:29:35;101863.78;;;11.24;100.00
11523;BME280;40093;43.224;27.910;2022-11-12T04:32:33;101861.03;;;11.24;100.00
11523;BME280;40093;43.224;27.910;2022-11-12T04:35:01;101881.34;;;11.32;100.00
11523;BME280;40093;43.224;27.910;2022-11-12T04:37:31;101881.91;;;11.37;100.00
11523;BME280;40093;43.224;27.910;2022-11-12T04:40:10;101877.53;;;11.36;100.00
11523;BME280;40093;43.224;27.910;2022-11-12T04:42:50;101888.19;;;11.50;100.00
11523;BME280;40093;43.224;27.910;2022-11-12T04:45:35;101891.50;;;11.55;100.00
11523;BME280;40093;43.224;27.910;2022-11-12T04:48:03;101879.94;;;11.50;100.00
11523;BME280;40093;43.224;27.910;2022-11-12T04:50:30;101890.03;;;11.58;100.00
11523;BME280;40093;43.224;27.910;2022-11-12T04:52:58;101884.28;;;11.63;100.00
11523;BME280;40093;43.224;27.910;2022-11-12T04:55:25;101895.16;;;11.71;100.00
11523;BME280;40093;43.224;27.910;2022-11-12T04:57:52;101879.81;;;11.58;100.00
11523;BME280;40093;43.224;27.910;2022-11-12T05:00:19;101890.78;;;11.70;100.00
11523;BME280;40093;43.224;27.910;2022-11-12T05:02:48;101894.72;;;11.69;100.00
11523;BME280;40093;43.224;27.910;2022-11-12T05:05:15;101898.63;;;11.68;100.00
11523;BME280;40093;43.224;27.910;2022-11-12T05:07:42;101894.25;;;11.67;100.00
11523;BME280;40093;43.224;27.910;2022-11-12T05:10:11;101894.94;;;11.64;100.00
11523;BME280;40093;43.224;27.910;2022-11-12T05:12:37;101879.00;;;11.58;100.00
11523;BME280;40093;43.224;27.910;2022-11-12T05:15:05;101894.75;;;11.57;100.00
11523;BME280;40093;43.224;27.910;2022-11-12T05:17:32;101881.19;;;11.40;100.00
11523;BME280;40093;43.224;27.910;2022-11-12T05:19:59;101905.19;;;11.52;100.00
11523;BME280;40093;43.224;27.910;2022-11-12T05:22:26;101912.06;;;11.58;100.00
11523;BME280;40093;43.224;27.910;2022-11-12T05:24:53;101891.41;;;11.64;100.00
11523;BME280;40093;43.224;27.910;2022-11-12T05:27:21;101914.47;;;11.71;100.00
11523;BME280;40093;43.224;27.910;2022-11-12T05:29:48;101912.69;;;11.79;100.00
11523;BME280;40093;43.224;27.910;2022-11-12T05:32:15;101907.91;;;11.76;100.00
11523;BME280;40093;43.224;27.910;2022-11-12T05:34:42;101921.53;;;11.84;100.00
11523;BME280;40093;43.224;27.910;2022-11-12T05:37:12;101914.91;;;11.73;100.00
11523;BME280;40093;43.224;27.910;2022-11-12T05:39:39;101924.25;;;11.96;100.00
11523;BME280;40093;43.224;27.910;2022-11-12T05:42:07;101936.88;;;11.97;100.00
11523;BME280;40093;43.224;27.910;2022-11-12T05:44:36;101938.78;;;11.81;100.00
11523;BME280;40093;43.224;27.910;2022-11-12T05:47:03;101940.63;;;11.89;100.00
11523;BME280;40093;43.224;27.910;2022-11-12T05:49:30;101941.41;;;11.90;100.00
11523;BME280;40093;43.224;27.910;2022-11-12T05:51:56;101942.56;;;11.89;100.00
11523;BME280;40093;43.224;27.910;2022-11-12T05:54:29;101942.00;;;11.83;100.00
11523;BME280;40093;43.224;27.910;2022-11-12T05:56:55;101953.97;;;11.87;100.00
11523;BME280;40093;43.224;27.910;2022-11-12T05:59:22;101954.75;;;11.88;100.00
11523;BME280;40093;43.224;27.910;2022-11-12T06:01:51;101956.25;;;11.85;100.00
11523;BME280;40093;43.224;27.910;2022-11-12T06:04:17;101961.88;;;11.89;100.00
11523;BME280;40093;43.224;27.910;2022-11-12T06:06:44;101954.84;;;11.91;100.00
11523;BME280;40093;43.224;27.910;2022-11-12T06:09:11;101966.69;;;11.92;100.00
11523;BME280;40093;43.224;27.910;2022-11-12T06:11:38;101961.06;;;11.88;100.00
11523;BME280;40093;43.224;27.910;2022-11-12T06:14:05;101959.81;;;11.86;100.00
11523;BME280;40093;43.224;27.910;2022-11-12T06:16:32;101968.88;;;11.86;100.00
11523;BME280;40093;43.224;27.910;2022-11-12T06:19:01;101976.03;;;11.87;100.00
11523;BME280;40093;43.224;27.910;2022-11-12T06:21:29;101964.88;;;11.84;100.00
11523;BME280;40093;43.224;27.910;2022-11-12T06:23:58;101973.00;;;11.92;100.00
11523;BME280;40093;43.224;27.910;2022-11-12T06:26:27;101968.66;;;11.91;100.00
11523;BME280;40093;43.224;27.910;2022-11-12T06:28:54;101973.91;;;11.96;100.00
11523;BME280;40093;43.224;27.910;2022-11-12T06:31:23;101972.97;;;12.04;100.00
11523;BME280;40093;43.224;27.910;2022-11-12T06:33:50;101966.50;;;12.12;100.00
11523;BME280;40093;43.224;27.910;2022-11-12T06:36:19;101972.03;;;12.12;100.00
11523;BME280;40093;43.224;27.910;2022-11-12T06:38:46;101974.72;;;12.24;100.00
11523;BME280;40093;43.224;27.910;2022-11-12T06:41:13;101975.28;;;12.30;100.00
11523;BME280;40093;43.224;27.910;2022-11-12T06:43:41;101975.44;;;12.21;100.00
11523;BME280;40093;43.224;27.910;2022-11-12T06:46:11;101983.47;;;12.26;100.00
11523;BME280;40093;43.224;27.910;2022-11-12T06:48:39;101984.63;;;12.25;100.00
11523;BME280;40093;43.224;27.910;2022-11-12T06:51:08;101983.06;;;12.12;100.00
11523;BME280;40093;43.224;27.910;2022-11-12T06:53:36;101993.66;;;12.10;100.00
11523;BME280;40093;43.224;27.910;2022-11-12T06:56:05;101976.19;;;12.06;100.00
11523;BME280;40093;43.224;27.910;2022-11-12T06:58:33;101985.72;;;12.09;100.00
11523;BME280;40093;43.224;27.910;2022-11-12T07:01:08;101982.13;;;12.08;100.00
11523;BME280;40093;43.224;27.910;2022-11-12T07:03:36;101991.78;;;12.14;100.00
11523;BME280;40093;43.224;27.910;2022-11-12T07:06:05;101991.19;;;12.21;100.00
11523;BME280;40093;43.224;27.910;2022-11-12T07:08:33;101988.53;;;12.24;100.00
11523;BME280;40093;43.224;27.910;2022-11-12T07:11:02;101990.84;;;12.22;100.00
11523;BME280;40093;43.224;27.910;2022-11-12T07:13:30;101999.31;;;12.29;100.00
11523;BME280;40093;43.224;27.910;2022-11-12T07:15:57;101988.09;;;12.22;100.00
11523;BME280;40093;43.224;27.910;2022-11-12T07:18:25;101986.59;;;12.25;100.00
11523;BME280;40093;43.224;27.910;2022-11-12T07:20:56;101979.81;;;12.22;100.00
11523;BME280;40093;43.224;27.910;2022-11-12T07:23:24;101987.69;;;12.36;100.00
11523;BME280;40093;43.224;27.910;2022-11-12T07:25:55;101997.91;;;12.35;100.00
11523;BME280;40093;43.224;27.910;2022-11-12T07:28:24;101995.50;;;12.33;100.00
11523;BME280;40093;43.224;27.910;2022-11-12T07:30:54;102007.56;;;12.41;100.00
11523;BME280;40093;43.224;27.910;2022-11-12T07:33:21;102006.97;;;12.47;100.00
11523;BME280;40093;43.224;27.910;2022-11-12T07:35:55;102002.00;;;12.53;100.00
11523;BME280;40093;43.224;27.910;2022-11-12T07:38:22;101995.66;;;12.52;100.00
11523;BME280;40093;43.224;27.910;2022-11-12T07:40:49;101990.66;;;12.58;100.00
11523;BME280;40093;43.224;27.910;2022-11-12T07:43:16;101999.59;;;12.67;100.00
11523;BME280;40093;43.224;27.910;2022-11-12T07:45:44;101992.69;;;12.73;100.00
11523;BME280;40093;43.224;27.910;2022-11-12T07:48:11;101995.69;;;12.68;100.00
11523;BME280;40093;43.224;27.910;2022-11-12T07:50:39;101993.19;;;12.63;100.00
11523;BME280;40093;43.224;27.910;2022-11-12T07:53:06;101981.50;;;12.54;100.00
11523;BME280;40093;43.224;27.910;2022-11-12T07:55:34;101996.56;;;12.72;100.00
11523;BME280;40093;43.224;27.910;2022-11-12T07:58:04;101998.19;;;12.73;100.00
11523;BME280;40093;43.224;27.910;2022-11-12T08:00:41;101979.56;;;12.70;100.00
11523;BME280;40093;43.224;27.910;2022-11-12T08:03:10;102004.09;;;12.87;100.00
11523;BME280;40093;43.224;27.910;2022-11-12T08:05:38;102004.81;;;12.84;100.00
11523;BME280;40093;43.224;27.910;2022-11-12T08:08:05;101990.53;;;12.82;100.00
11523;BME280;40093;43.224;27.910;2022-11-12T08:10:32;102007.41;;;12.92;100.00
11523;BME280;40093;43.224;27.910;2022-11-12T08:12:59;102010.63;;;12.94;100.00
11523;BME280;40093;43.224;27.910;2022-11-12T08:15:27;102014.88;;;12.92;100.00
11523;BME280;40093;43.224;27.910;2022-11-12T08:17:54;102020.97;;;12.97;100.00
11523;BME280;40093;43.224;27.910;2022-11-12T08:20:22;102026.69;;;13.04;100.00
11523;BME280;40093;43.224;27.910;2022-11-12T08:22:50;102025.00;;;13.15;100.00
11523;BME280;40093;43.224;27.910;2022-11-12T08:25:17;102023.66;;;13.25;100.00
11523;BME280;40093;43.224;27.910;2022-11-12T08:27:44;102023.50;;;13.33;100.00
11523;BME280;40093;43.224;27.910;2022-11-12T08:30:12;102023.66;;;13.40;100.00
11523;BME280;40093;43.224;27.910;2022-11-12T08:32:39;102027.56;;;13.39;100.00
11523;BME280;40093;43.224;27.910;2022-11-12T08:35:06;102020.28;;;13.47;100.00
11523;BME280;40093;43.224;27.910;2022-11-12T08:37:35;102033.91;;;13.55;100.00
11523;BME280;40093;43.224;27.910;2022-11-12T08:40:02;102039.06;;;13.57;100.00
11523;BME280;40093;43.224;27.910;2022-11-12T08:42:29;102041.03;;;13.56;100.00
11523;BME280;40093;43.224;27.910;2022-11-12T08:44:55;102034.25;;;13.54;100.00
11523;BME280;40093;43.224;27.910;2022-11-12T08:47:23;102045.75;;;13.56;100.00
11523;BME280;40093;43.224;27.910;2022-11-12T08:49:50;102049.25;;;13.53;100.00
11523;BME280;40093;43.224;27.910;2022-11-12T08:52:16;102052.75;;;13.50;100.00
11523;BME280;40093;43.224;27.910;2022-11-12T08:54:45;102042.56;;;13.54;100.00
11523;BME280;40093;43.224;27.910;2022-11-12T08:57:12;102037.72;;;13.66;100.00
11523;BME280;40093;43.224;27.910;2022-11-12T08:59:39;102043.06;;;13.75;100.00
11523;BME280;40093;43.224;27.910;2022-11-12T09:02:10;102042.94;;;13.87;100.00
11523;BME280;40093;43.224;27.910;2022-11-12T09:04:38;102039.00;;;13.88;100.00
11523;BME280;40093;43.224;27.910;2022-11-12T09:07:05;102040.84;;;13.99;100.00
11523;BME280;40093;43.224;27.910;2022-11-12T09:09:32;102036.44;;;14.14;100.00
11523;BME280;40093;43.224;27.910;2022-11-12T09:12:01;102034.06;;;14.31;100.00
11523;BME280;40093;43.224;27.910;2022-11-12T09:14:28;102035.31;;;14.34;100.00
11523;BME280;40093;43.224;27.910;2022-11-12T09:16:54;102024.25;;;14.34;100.00
11523;BME280;40093;43.224;27.910;2022-11-12T09:19:21;102025.69;;;14.66;100.00
11523;BME280;40093;43.224;27.910;2022-11-12T09:21:49;102024.91;;;14.88;100.00
11523;BME280;40093;43.224;27.910;2022-11-12T09:24:16;102035.13;;;15.06;100.00
11523;BME280;40093;43.224;27.910;2022-11-12T09:26:43;102024.06;;;15.28;100.00
11523;BME280;40093;43.224;27.910;2022-11-12T09:29:11;102021.69;;;15.53;100.00
11523;BME280;40093;43.224;27.910;2022-11-12T09:31:38;102026.31;;;15.68;100.00
11523;BME280;40093;43.224;27.910;2022-11-12T09:34:05;102018.66;;;15.87;100.00
11523;BME280;40093;43.224;27.910;2022-11-12T09:36:32;102016.13;;;16.05;100.00
11523;BME280;40093;43.224;27.910;2022-11-12T09:38:59;102017.22;;;16.26;100.00
11523;BME280;40093;43.224;27.910;2022-11-12T09:41:27;102021.47;;;16.50;100.00
11523;BME280;40093;43.224;27.910;2022-11-12T09:44:02;102012.09;;;16.61;100.00
11523;BME280;40093;43.224;27.910;2022-11-12T09:46:35;102021.97;;;16.59;100.00
11523;BME280;40093;43.224;27.910;2022-11-12T09:49:15;102031.00;;;16.49;100.00
11523;BME280;40093;43.224;27.910;2022-11-12T09:51:48;102020.59;;;16.42;100.00
11523;BME280;40093;43.224;27.910;2022-11-12T09:54:22;102023.84;;;16.48;100.00
11523;BME280;40093;43.224;27.910;2022-11-12T09:56:50;102026.34;;;16.56;100.00
11523;BME280;40093;43.224;27.910;2022-11-12T09:59:18;102023.44;;;16.82;100.00
11523;BME280;40093;43.224;27.910;2022-11-12T10:01:55;102033.88;;;16.92;100.00
11523;BME280;40093;43.224;27.910;2022-11-12T10:04:39;102029.41;;;16.84;100.00
11523;BME280;40093;43.224;27.910;2022-11-12T10:07:15;102029.59;;;16.62;100.00
11523;BME280;40093;43.224;27.910;2022-11-12T10:09:56;102026.66;;;16.51;100.00
11523;BME280;40093;43.224;27.910;2022-11-12T10:12:32;102027.03;;;16.50;100.00
11523;BME280;40093;43.224;27.910;2022-11-12T10:15:26;102028.88;;;16.39;100.00
11523;BME280;40093;43.224;27.910;2022-11-12T10:18:24;102034.50;;;16.13;100.00
11523;BME280;40093;43.224;27.910;2022-11-12T10:20:58;102031.41;;;15.92;100.00
11523;BME280;40093;43.224;27.910;2022-11-12T10:23:31;102038.66;;;15.74;100.00
11523;BME280;40093;43.224;27.910;2022-11-12T10:26:10;102035.41;;;15.68;100.00
11523;BME280;40093;43.224;27.910;2022-11-12T10:28:42;102040.88;;;15.61;100.00
11523;BME280;40093;43.224;27.910;2022-11-12T10:31:13;102030.50;;;15.58;100.00
11523;BME280;40093;43.224;27.910;2022-11-12T10:33:42;102038.78;;;15.55;100.00
11523;BME280;40093;43.224;27.910;2022-11-12T10:36:16;102036.06;;;15.58;100.00
11523;BME280;40093;43.224;27.910;2022-11-12T10:38:47;102044.69;;;15.79;100.00
11523;BME280;40093;43.224;27.910;2022-11-12T10:41:18;102035.50;;;16.01;100.00
11523;BME280;40093;43.224;27.910;2022-11-12T10:43:54;102037.59;;;16.08;100.00
11523;BME280;40093;43.224;27.910;2022-11-12T10:46:23;102049.03;;;16.03;100.00
11523;BME280;40093;43.224;27.910;2022-11-12T10:48:59;102052.16;;;16.27;100.00
11523;BME280;40093;43.224;27.910;2022-11-12T10:51:29;102049.59;;;16.15;100.00
11523;BME280;40093;43.224;27.910;2022-11-12T10:53:57;102041.13;;;16.34;100.00
11523;BME280;40093;43.224;27.910;2022-11-12T10:56:27;102034.22;;;16.51;100.00
11523;BME280;40093;43.224;27.910;2022-11-12T10:59:24;102021.47;;;16.46;100.00
11523;BME280;40093;43.224;27.910;2022-11-12T11:01:56;102030.06;;;16.38;100.00
11523;BME280;40093;43.224;27.910;2022-11-12T11:04:30;102039.78;;;16.51;100.00
11523;BME280;40093;43.224;27.910;2022-11-12T11:07:04;102040.78;;;16.69;100.00
11523;BME280;40093;43.224;27.910;2022-11-12T11:09:31;102046.31;;;16.69;100.00
11523;BME280;40093;43.224;27.910;2022-11-12T11:11:59;102049.47;;;16.34;100.00
11523;BME280;40093;43.224;27.910;2022-11-12T11:14:31;102044.13;;;16.22;100.00
11523;BME280;40093;43.224;27.910;2022-11-12T11:17:01;102041.03;;;16.27;100.00
11523;BME280;40093;43.224;27.910;2022-11-12T11:19:37;102038.09;;;16.17;100.00
11523;BME280;40093;43.224;27.910;2022-11-12T11:22:13;102039.03;;;16.28;100.00
11523;BME280;40093;43.224;27.910;2022-11-12T11:24:52;102050.81;;;16.44;100.00
11523;BME280;40093;43.224;27.910;2022-11-12T11:27:29;102045.66;;;16.46;100.00
11523;BME280;40093;43.224;27.910;2022-11-12T11:30:06;102053.63;;;16.47;100.00
11523;BME280;40093;43.224;27.910;2022-11-12T11:33:03;102039.03;;;16.54;100.00
11523;BME280;40093;43.224;27.910;2022-11-12T11:35:47;102042.16;;;16.52;100.00
11523;BME280;40093;43.224;27.910;2022-11-12T11:38:31;102040.81;;;16.39;100.00
11523;BME280;40093;43.224;27.910;2022-11-12T11:41:09;102043.47;;;16.32;100.00
11523;BME280;40093;43.224;27.910;2022-11-12T11:43:49;102038.91;;;16.17;100.00
11523;BME280;40093;43.224;27.910;2022-11-12T11:46:30;102048.44;;;15.90;100.00
11523;BME280;40093;43.224;27.910;2022-11-12T11:49:22;102050.00;;;15.88;100.00
11523;BME280;40093;43.224;27.910;2022-11-12T11:52:01;102045.72;;;15.68;100.00
11523;BME280;40093;43.224;27.910;2022-11-12T11:54:55;102054.41;;;15.66;100.00
11523;BME280;40093;43.224;27.910;2022-11-12T11:57:31;102039.63;;;15.59;100.00
11523;BME280;40093;43.224;27.910;2022-11-12T12:00:09;102036.94;;;15.62;100.00
11523;BME280;40093;43.224;27.910;2022-11-12T12:05:35;102048.09;;;15.66;100.00
11523;BME280;40093;43.224;27.910;2022-11-12T12:08:08;102042.56;;;15.69;100.00
11523;BME280;40093;43.224;27.910;2022-11-12T12:10:51;102049.28;;;15.68;100.00
11523;BME280;40093;43.224;27.910;2022-11-12T12:13:28;102050.53;;;15.71;100.00
11523;BME280;40093;43.224;27.910;2022-11-12T12:16:12;102055.94;;;15.60;100.00
11523;BME280;40093;43.224;27.910;2022-11-12T12:18:50;102060.31;;;15.39;100.00
11523;BME280;40093;43.224;27.910;2022-11-12T12:21:20;102052.81;;;15.39;100.00
11523;BME280;40093;43.224;27.910;2022-11-12T12:23:55;102051.94;;;15.35;100.00
11523;BME280;40093;43.224;27.910;2022-11-12T12:26:26;102056.75;;;15.38;100.00
11523;BME280;40093;43.224;27.910;2022-11-12T12:29:01;102059.81;;;15.33;100.00
11523;BME280;40093;43.224;27.910;2022-11-12T12:31:36;102048.31;;;15.31;100.00
11523;BME280;40093;43.224;27.910;2022-11-12T12:34:14;102064.94;;;15.31;100.00
11523;BME280;40093;43.224;27.910;2022-11-12T12:36:43;102065.31;;;15.30;100.00
11523;BME280;40093;43.224;27.910;2022-11-12T12:39:13;102063.34;;;15.30;100.00
11523;BME280;40093;43.224;27.910;2022-11-12T12:41:50;102057.56;;;15.20;100.00
11523;BME280;40093;43.224;27.910;2022-11-12T12:44:20;102060.72;;;15.18;100.00
11523;BME280;40093;43.224;27.910;2022-11-12T12:47:09;102060.22;;;15.13;100.00
11523;BME280;40093;43.224;27.910;2022-11-12T12:49:38;102065.38;;;15.14;100.00